Time;durP1;ratioP1;P1;durP2;ratioP2;P2;SDS_P1;SDS_P2;PMS_P1;PMS_P2;Temp;Humidity;BMP_temperature;BMP_pressure;BME280_temperature;BME280_humidity;BME280_pressure;Samples;Min_cycle;Max_cycle;Signal;HPM_P1;HPM_P2
2023/04/26 00:01:10;;;;;;;2.75;1.00;;;;;;;22.63;31.95;101426.44;5043337;28;20130;-76
2023/04/26 00:03:39;;;;;;;1.00;0.70;;;;;;;22.65;31.76;101429.91;5040920;28;20102;-75
2023/04/26 00:06:09;;;;;;;3.83;0.90;;;;;;;22.67;32.06;101428.13;5042217;28;20118;-78
2023/04/26 00:08:38;;;;;;;1.60;0.88;;;;;;;22.67;32.89;101428.13;5047052;28;20107;-80
2023/04/26 00:11:08;;;;;;;3.90;0.90;;;;;;;22.64;32.58;101417.63;5042299;28;20445;-79
2023/04/26 00:13:37;;;;;;;1.48;0.70;;;;;;;22.71;32.27;101432.50;5034740;28;20411;-79
2023/04/26 00:16:07;;;;;;;1.67;0.80;;;;;;;22.71;31.74;101424.59;5046680;28;20045;-80
2023/04/26 00:18:36;;;;;;;1.25;0.50;;;;;;;22.73;31.72;101438.63;5043643;28;20045;-78
2023/04/26 00:21:07;;;;;;;0.80;0.60;;;;;;;22.70;31.14;101441.31;5041566;28;20632;-77
2023/04/26 00:23:37;;;;;;;2.35;0.52;;;;;;;22.61;31.58;101432.59;5040543;28;20072;-78
2023/04/26 00:26:08;;;;;;;3.53;1.00;;;;;;;22.55;31.14;101433.53;5049224;28;20067;-77
2023/04/26 00:28:37;;;;;;;1.08;0.65;;;;;;;22.57;31.41;101431.75;5043167;28;20083;-75
2023/04/26 00:31:14;;;;;;;4.40;0.60;;;;;;;22.60;31.91;101437.00;5042930;28;20048;-77
2023/04/26 00:33:43;;;;;;;2.88;0.68;;;;;;;22.56;31.39;101428.25;5041196;28;20461;-77
2023/04/26 00:36:14;;;;;;;2.30;2.00;;;;;;;22.51;32.63;101429.19;5048187;28;20513;-76
2023/04/26 00:38:42;;;;;;;1.27;0.60;;;;;;;22.43;32.73;101429.25;5042217;28;20081;-78
2023/04/26 00:41:13;;;;;;;0.82;0.50;;;;;;;22.43;32.67;101431.03;5044069;28;20048;-78
2023/04/26 00:43:41;;;;;;;2.00;0.60;;;;;;;22.43;33.59;101444.22;5045280;28;20060;-76
2023/04/26 00:46:11;;;;;;;1.10;0.50;;;;;;;22.43;32.88;101438.94;5037570;28;20072;-77
2023/04/26 00:48:40;;;;;;;1.42;0.50;;;;;;;22.43;31.86;101433.66;5050879;28;20043;-80
2023/04/26 00:51:09;;;;;;;1.25;0.50;;;;;;;22.41;32.74;101436.31;5041310;28;20045;-78
2023/04/26 00:53:38;;;;;;;1.20;0.50;;;;;;;22.37;32.68;101430.16;5034866;28;20633;-77
2023/04/26 00:56:10;;;;;;;1.63;0.73;;;;;;;22.35;33.64;101426.66;5045294;28;20051;-81
2023/04/26 00:58:40;;;;;;;1.10;0.60;;;;;;;22.35;33.46;101426.66;5040687;28;20045;-81
2023/04/26 01:01:09;;;;;;;1.38;0.40;;;;;;;22.32;33.10;101405.59;5043562;28;20041;-79
2023/04/26 01:03:39;;;;;;;2.75;0.60;;;;;;;22.31;33.21;101409.16;5038089;28;20140;-78
2023/04/26 01:06:18;;;;;;;1.20;0.50;;;;;;;22.28;33.39;101405.66;5046352;28;20049;-77
2023/04/26 01:08:53;;;;;;;1.20;0.50;;;;;;;22.27;32.28;101411.81;5038355;28;20048;-79
2023/04/26 01:11:30;;;;;;;1.00;0.50;;;;;;;22.24;34.18;101406.56;5040398;28;20410;-79
2023/04/26 01:14:01;;;;;;;0.60;0.50;;;;;;;22.21;34.54;101402.19;5041267;28;20052;-75
2023/04/26 01:16:30;;;;;;;0.93;0.73;;;;;;;22.20;34.30;101404.81;5034264;28;20411;-78
2023/04/26 01:18:59;;;;;;;3.05;1.75;;;;;;;22.18;33.58;101404.84;5046699;28;20056;-79
2023/04/26 01:21:28;;;;;;;1.38;1.13;;;;;;;22.14;34.97;101406.59;5043236;28;20098;-82
2023/04/26 01:23:58;;;;;;;1.60;0.68;;;;;;;22.07;33.62;101406.66;5039940;28;20080;-82
2023/04/26 01:26:27;;;;;;;1.45;0.60;;;;;;;21.98;33.40;101406.75;5049878;28;20445;-78
2023/04/26 01:28:55;;;;;;;4.05;0.93;;;;;;;21.99;32.16;101422.56;5040340;28;20049;-80
2023/04/26 01:31:24;;;;;;;1.45;0.68;;;;;;;21.87;30.65;101412.06;5031535;28;20049;-83
2023/04/26 01:33:53;;;;;;;0.80;0.47;;;;;;;21.77;32.29;101423.56;5041242;28;20096;-84
2023/04/26 01:36:21;;;;;;;2.47;1.00;;;;;;;21.73;33.98;101420.06;5048913;28;20049;-84
2023/04/26 01:38:50;;;;;;;2.03;0.85;;;;;;;21.69;32.93;101413.06;5048642;28;20059;-82
2023/04/26 01:41:21;;;;;;;5.43;0.80;;;;;;;21.62;33.70;101411.34;5041572;28;20085;-83
2023/04/26 01:43:50;;;;;;;1.42;0.60;;;;;;;21.58;33.82;101412.25;5044535;28;20048;-82
2023/04/26 01:46:19;;;;;;;1.58;0.60;;;;;;;21.50;34.39;101407.03;5037966;28;20064;-81
2023/04/26 01:48:47;;;;;;;0.50;0.40;;;;;;;21.43;33.36;101405.31;5040947;28;20066;-81
2023/04/26 01:51:16;;;;;;;2.25;0.75;;;;;;;21.36;33.01;101396.53;5042954;28;20061;-79
2023/04/26 01:53:45;;;;;;;1.08;0.63;;;;;;;21.30;33.93;101399.19;5041261;28;20667;-82
2023/04/26 01:56:14;;;;;;;1.83;0.77;;;;;;;21.24;35.36;101400.09;5033770;28;20045;-80
2023/04/26 01:58:44;;;;;;;2.60;0.60;;;;;;;21.18;34.89;101389.59;5045079;28;20048;-79
2023/04/26 02:01:14;;;;;;;0.90;0.50;;;;;;;21.12;34.70;101393.16;5043118;28;20087;-80
2023/04/26 02:03:43;;;;;;;1.17;0.50;;;;;;;21.04;34.80;101387.03;5041690;28;20539;-85
2023/04/26 02:06:12;;;;;;;1.10;0.40;;;;;;;20.90;34.19;101383.56;5043584;28;20501;-80
2023/04/26 02:08:41;;;;;;;1.55;0.43;;;;;;;20.81;34.68;101383.59;5046354;28;20581;-81
2023/04/26 02:11:10;;;;;;;2.60;0.50;;;;;;;20.73;35.38;101375.75;5042272;28;20416;-80
2023/04/26 02:13:39;;;;;;;1.13;0.55;;;;;;;20.66;35.72;101385.41;5045762;28;20538;-80
2023/04/26 02:16:10;;;;;;;1.08;0.50;;;;;;;20.59;35.37;101388.91;5045824;28;20402;-81
2023/04/26 02:18:40;;;;;;;0.82;0.50;;;;;;;20.52;33.83;101387.13;5049408;28;20579;-78
2023/04/26 02:21:11;;;;;;;0.70;0.50;;;;;;;20.47;33.83;101389.75;5050889;28;20041;-79
2023/04/26 02:23:40;;;;;;;1.10;0.53;;;;;;;20.43;33.72;101384.50;5045245;28;20049;-76
2023/04/26 02:26:10;;;;;;;0.93;0.60;;;;;;;20.38;34.77;101392.41;5042907;28;20048;-76
2023/04/26 02:28:39;;;;;;;3.33;0.75;;;;;;;20.30;34.85;101386.28;5038915;28;20057;-80
2023/04/26 02:31:09;;;;;;;1.60;0.60;;;;;;;20.22;35.00;101393.28;5043972;28;20061;-78
2023/04/26 02:33:38;;;;;;;5.03;0.50;;;;;;;20.13;35.36;101385.41;5048836;28;20106;-79
2023/04/26 02:36:08;;;;;;;1.15;0.50;;;;;;;20.05;35.44;101382.78;5041956;28;20049;-79
2023/04/26 02:38:37;;;;;;;0.80;0.52;;;;;;;19.95;34.63;101383.63;5039193;28;20589;-78
2023/04/26 02:41:06;;;;;;;0.88;0.60;;;;;;;19.89;35.67;101379.28;5045553;28;20572;-80
2023/04/26 02:43:35;;;;;;;0.98;0.45;;;;;;;19.81;34.93;101375.75;5045431;28;20466;-80
2023/04/26 02:46:03;;;;;;;1.08;0.82;;;;;;;19.72;35.48;101384.47;5046098;28;20045;-79
2023/04/26 02:48:34;;;;;;;2.47;0.50;;;;;;;19.65;34.81;101388.84;5050781;28;20103;-80
2023/04/26 02:51:02;;;;;;;2.17;0.60;;;;;;;19.59;34.46;101395.81;5040272;28;20132;-81
2023/04/26 02:53:31;;;;;;;2.65;0.50;;;;;;;19.50;34.79;101398.41;5046702;28;20517;-79
2023/04/26 02:56:00;;;;;;;1.23;0.47;;;;;;;19.40;34.43;101394.88;5047347;28;20049;-79
2023/04/26 02:58:29;;;;;;;1.00;0.30;;;;;;;19.32;34.71;101396.59;5039038;28;20079;-80
2023/04/26 03:00:58;;;;;;;2.50;0.55;;;;;;;19.22;35.13;101399.19;5042935;28;20509;-80
2023/04/26 03:03:27;;;;;;;1.30;0.30;;;;;;;19.16;35.10;101406.16;5051690;28;20414;-81
2023/04/26 03:05:58;;;;;;;0.90;0.50;;;;;;;19.08;35.30;101407.84;5041428;28;20069;-79
2023/04/26 03:08:26;;;;;;;2.60;0.55;;;;;;;18.98;35.56;101409.56;5045954;28;20060;-78
2023/04/26 03:10:55;;;;;;;0.77;0.50;;;;;;;18.87;35.75;101417.34;5044577;28;20120;-79
2023/04/26 03:13:24;;;;;;;0.50;0.40;;;;;;;18.77;36.30;101413.81;5041822;28;20146;-79
2023/04/26 03:15:53;;;;;;;1.45;0.57;;;;;;;18.66;36.85;101414.59;5039552;28;20060;-77
2023/04/26 03:18:22;;;;;;;1.58;0.40;;;;;;;18.52;38.02;101410.13;5040236;28;20169;-78
2023/04/26 03:20:51;;;;;;;0.65;0.47;;;;;;;18.40;38.64;101413.53;5043327;28;20056;-81
2023/04/26 03:23:23;;;;;;;1.02;0.40;;;;;;;18.27;37.86;101409.03;5041764;28;20495;-79
2023/04/26 03:25:52;;;;;;;1.50;0.40;;;;;;;18.17;39.08;101410.72;5040583;28;20076;-80
2023/04/26 03:28:20;;;;;;;0.45;0.30;;;;;;;18.00;39.43;101415.81;5045897;28;21120;-77
2023/04/26 03:30:50;;;;;;;2.25;0.60;;;;;;;17.87;41.89;101416.56;5044411;28;20053;-78
2023/04/26 03:33:19;;;;;;;4.13;0.55;;;;;;;17.74;41.84;101419.88;5043404;28;20099;-78
2023/04/26 03:35:48;;;;;;;0.68;0.43;;;;;;;17.65;42.45;101420.63;5043794;28;20452;-79
2023/04/26 03:38:16;;;;;;;0.70;0.50;;;;;;;17.57;43.38;101417.06;5044152;28;20059;-79
2023/04/26 03:40:47;;;;;;;0.80;0.38;;;;;;;17.46;44.79;101429.16;5045117;28;20048;-75
2023/04/26 03:43:16;;;;;;;1.35;0.40;;;;;;;17.38;43.46;101434.28;5051896;28;20306;-79
2023/04/26 03:45:47;;;;;;;3.92;0.85;;;;;;;17.31;43.56;101441.16;5039925;28;20045;-79
2023/04/26 03:48:16;;;;;;;0.60;0.30;;;;;;;17.26;43.30;101441.97;5040403;28;20126;-80
2023/04/26 03:50:46;;;;;;;1.52;0.63;;;;;;;17.16;43.44;101441.00;5040148;28;20087;-80
2023/04/26 03:53:15;;;;;;;3.28;0.93;;;;;;;17.11;42.73;101438.31;5043159;28;20049;-78
2023/04/26 03:55:44;;;;;;;5.63;0.65;;;;;;;17.05;43.41;101445.19;5034880;28;20083;-77
2023/04/26 03:58:14;;;;;;;2.75;0.70;;;;;;;17.00;42.99;101449.47;5043116;28;20056;-77
2023/04/26 04:00:43;;;;;;;1.00;0.63;;;;;;;16.91;44.20;101445.88;5042259;28;20102;-77
2023/04/26 04:03:12;;;;;;;2.72;0.80;;;;;;;16.84;45.07;101449.25;5046863;28;20044;-78
2023/04/26 04:05:41;;;;;;;3.03;0.80;;;;;;;16.73;45.79;101443.81;5044207;28;20061;-78
2023/04/26 04:08:09;;;;;;;1.23;0.65;;;;;;;16.62;45.65;101444.50;5046492;27;20099;-77
2023/04/26 04:10:38;;;;;;;1.58;0.70;;;;;;;16.53;45.03;101448.72;5022564;28;20072;-76
2023/04/26 04:13:07;;;;;;;1.70;0.70;;;;;;;16.46;44.83;101452.09;5016742;28;20072;-77
2023/04/26 04:15:37;;;;;;;0.95;0.50;;;;;;;16.39;45.48;101457.19;5022794;28;20056;-77
2023/04/26 04:18:06;;;;;;;1.40;0.77;;;;;;;16.29;46.15;101459.66;5020285;28;20046;-77
2023/04/26 04:20:34;;;;;;;4.30;0.88;;;;;;;16.22;45.41;101469.97;5025879;28;20666;-77
2023/04/26 04:23:05;;;;;;;0.77;0.47;;;;;;;16.15;45.78;101475.91;5024385;28;21303;-77
2023/04/26 04:25:33;;;;;;;1.10;0.50;;;;;;;16.08;46.57;101475.81;5014531;28;20081;-77
2023/04/26 04:28:02;;;;;;;1.48;0.80;;;;;;;16.02;46.54;101474.84;5024273;28;20081;-78
2023/04/26 04:30:31;;;;;;;1.27;0.68;;;;;;;15.95;46.75;101472.97;5012693;28;20475;-80
2023/04/26 04:33:02;;;;;;;2.05;0.45;;;;;;;15.89;46.71;101476.31;5025120;28;20136;-77
2023/04/26 04:35:32;;;;;;;0.40;0.40;;;;;;;15.80;46.96;101482.22;5024120;28;20046;-78
2023/04/26 04:38:01;;;;;;;1.33;0.73;;;;;;;15.73;48.17;101477.75;5020452;28;20482;-78
2023/04/26 04:40:30;;;;;;;3.30;0.60;;;;;;;15.63;48.29;101471.44;5022387;28;20138;-78
2023/04/26 04:43:00;;;;;;;1.88;0.60;;;;;;;15.56;48.75;101480.00;5015984;28;20046;-77
2023/04/26 04:45:29;;;;;;;3.65;0.95;;;;;;;15.50;48.97;101477.25;5025188;28;20060;-77
2023/04/26 04:47:57;;;;;;;6.22;1.65;;;;;;;15.43;50.21;101478.84;5019800;28;20049;-78
2023/04/26 04:50:28;;;;;;;3.03;1.20;;;;;;;15.34;50.13;101483.88;5024056;28;20888;-76
2023/04/26 04:52:57;;;;;;;2.17;0.85;;;;;;;15.27;51.54;101484.59;5022379;28;20506;-78
2023/04/26 04:55:25;;;;;;;6.45;3.78;;;;;;;15.19;52.32;101492.25;5022872;28;20126;-77
2023/04/26 04:57:55;;;;;;;4.72;1.42;;;;;;;15.11;53.15;101483.34;5014462;28;20495;-79
2023/04/26 05:00:23;;;;;;;2.38;1.40;;;;;;;15.05;53.90;101488.47;5020360;28;20402;-79
2023/04/26 05:02:52;;;;;;;2.80;1.40;;;;;;;14.95;54.90;101484.72;5014830;28;20235;-78
2023/04/26 05:05:21;;;;;;;3.55;1.23;;;;;;;14.86;54.67;101488.00;5019695;28;20415;-80
2023/04/26 05:07:52;;;;;;;6.38;2.65;;;;;;;14.80;54.47;101482.66;5018862;28;20045;-75
2023/04/26 05:10:21;;;;;;;2.78;1.73;;;;;;;14.76;55.25;101479.94;5027077;28;20123;-76
2023/04/26 05:12:50;;;;;;;3.65;1.88;;;;;;;14.70;55.34;101485.88;5026572;28;20130;-78
2023/04/26 05:15:18;;;;;;;4.10;2.15;;;;;;;14.64;55.69;101488.34;5021679;28;20327;-77
2023/04/26 05:17:47;;;;;;;4.40;2.03;;;;;;;14.56;55.76;101489.88;5021302;28;20048;-77
2023/04/26 05:20:17;;;;;;;1.98;1.15;;;;;;;14.49;56.87;101493.13;5016994;28;20157;-78
2023/04/26 05:22:45;;;;;;;4.13;1.60;;;;;;;14.40;56.94;101489.44;5016615;28;20533;-78
2023/04/26 05:25:16;;;;;;;6.85;1.88;;;;;;;14.35;57.88;101488.44;5022790;28;20072;-76
2023/04/26 05:27:45;;;;;;;4.97;1.70;;;;;;;14.29;58.16;101488.28;5018940;28;20041;-77
2023/04/26 05:30:14;;;;;;;2.90;1.20;;;;;;;14.25;57.98;101492.53;5017778;28;20496;-77
2023/04/26 05:32:44;;;;;;;4.05;1.73;;;;;;;14.20;58.46;101491.56;5030124;28;20385;-77
2023/04/26 05:35:13;;;;;;;4.75;1.45;;;;;;;14.13;58.90;101487.03;5026612;28;20073;-78
2023/04/26 05:37:41;;;;;;;8.57;1.88;;;;;;;14.05;59.44;101485.94;5030310;28;20557;-77
2023/04/26 05:40:11;;;;;;;4.03;1.42;;;;;;;13.99;59.42;101486.63;5019584;28;20108;-77
2023/04/26 05:42:41;;;;;;;4.95;1.30;;;;;;;13.90;60.65;101483.78;5021929;28;20129;-77
2023/04/26 05:45:11;;;;;;;4.03;1.40;;;;;;;13.80;62.20;101479.19;5025469;28;20084;-76
2023/04/26 05:47:39;;;;;;;3.05;1.83;;;;;;;13.69;62.43;101472.78;5029972;28;20137;-77
2023/04/26 05:50:09;;;;;;;3.63;1.10;;;;;;;13.64;63.52;101477.84;5026652;28;20049;-77
2023/04/26 05:52:38;;;;;;;4.22;1.25;;;;;;;13.61;64.50;101478.66;5026088;28;20045;-77
2023/04/26 05:55:07;;;;;;;1.38;0.90;;;;;;;13.60;63.39;101471.69;5020933;28;20049;-77
2023/04/26 05:57:36;;;;;;;0.85;0.68;;;;;;;13.60;63.90;101482.06;5026404;28;20591;-76
2023/04/26 06:00:11;;;;;;;1.08;0.82;;;;;;;13.58;62.84;101481.19;5023454;28;20551;-77
2023/04/26 06:02:39;;;;;;;1.65;0.80;;;;;;;13.56;63.07;101477.66;5026047;28;20042;-76
2023/04/26 06:05:09;;;;;;;4.22;0.60;;;;;;;13.53;62.43;101477.53;5021178;28;20080;-77
2023/04/26 06:07:38;;;;;;;5.18;1.13;;;;;;;13.52;61.95;101473.19;5025795;28;20085;-77
2023/04/26 06:10:07;;;;;;;1.30;0.80;;;;;;;13.51;62.24;101480.94;5037515;27;20525;-75
2023/04/26 06:12:36;;;;;;;1.08;0.80;;;;;;;13.47;61.69;101477.38;5050307;28;20601;-75
2023/04/26 06:15:05;;;;;;;2.60;1.13;;;;;;;13.46;61.39;101473.00;5051602;28;20100;-77
2023/04/26 06:17:35;;;;;;;1.50;0.88;;;;;;;13.46;61.23;101473.00;5043141;28;20761;-75
2023/04/26 06:20:05;;;;;;;1.75;0.68;;;;;;;13.47;61.92;101477.38;5044880;28;20052;-76
2023/04/26 06:22:34;;;;;;;1.55;0.50;;;;;;;13.50;61.04;101474.88;5041807;28;20670;-75
2023/04/26 06:25:03;;;;;;;0.60;0.47;;;;;;;13.53;60.59;101472.34;5045329;28;20071;-75
2023/04/26 06:27:32;;;;;;;0.52;0.40;;;;;;;13.58;61.57;101475.06;5046379;28;20056;-75
2023/04/26 06:30:01;;;;;;;0.70;0.50;;;;;;;13.61;61.22;101472.59;5040958;28;21174;-75
2023/04/26 06:32:30;;;;;;;0.50;0.40;;;;;;;13.64;60.96;101463.97;5039457;28;20037;-76
2023/04/26 06:35:00;;;;;;;0.90;0.60;;;;;;;13.67;61.24;101469.25;5046964;28;20045;-75
2023/04/26 06:37:30;;;;;;;0.68;0.30;;;;;;;13.70;61.38;101471.94;5043574;28;20507;-75
2023/04/26 06:39:59;;;;;;;0.50;0.40;;;;;;;13.75;60.48;101475.56;5052372;28;20055;-75
2023/04/26 06:42:27;;;;;;;0.50;0.45;;;;;;;13.77;60.77;101479.97;5041778;28;20045;-76
2023/04/26 06:44:57;;;;;;;0.57;0.30;;;;;;;13.79;61.39;101474.81;5044272;28;20399;-76
2023/04/26 06:47:25;;;;;;;1.33;0.55;;;;;;;13.78;61.02;101470.44;5052830;28;20072;-76
2023/04/26 06:49:55;;;;;;;0.43;0.40;;;;;;;13.85;61.81;101474.97;5038963;28;20046;-76
2023/04/26 06:52:25;;;;;;;0.57;0.35;;;;;;;13.86;61.63;101479.34;5045768;28;20060;-76
2023/04/26 06:54:54;;;;;;;1.08;0.40;;;;;;;13.88;61.29;101490.69;5044214;28;20045;-75
2023/04/26 06:57:23;;;;;;;2.45;0.50;;;;;;;13.89;61.23;101492.44;5045639;28;20442;-76
2023/04/26 06:59:51;;;;;;;0.68;0.50;;;;;;;13.90;61.15;101495.91;5037358;28;20049;-76
2023/04/26 07:02:22;;;;;;;0.25;0.20;;;;;;;13.91;61.85;101487.28;5041079;28;20049;-76
2023/04/26 07:04:51;;;;;;;0.98;0.47;;;;;;;13.91;61.97;101490.75;5041073;28;20041;-77
2023/04/26 07:07:19;;;;;;;0.47;0.40;;;;;;;13.92;62.27;101492.50;5044170;28;20065;-76
2023/04/26 07:09:50;;;;;;;2.05;0.55;;;;;;;13.92;61.59;101489.91;5041542;28;20059;-76
2023/04/26 07:12:19;;;;;;;1.90;0.50;;;;;;;13.92;61.48;101495.09;5037296;28;20431;-76
2023/04/26 07:14:47;;;;;;;0.70;0.47;;;;;;;13.91;61.40;101484.69;5038456;28;20045;-76
2023/04/26 07:17:16;;;;;;;1.05;0.40;;;;;;;13.92;61.48;101487.31;5048102;28;20055;-77
2023/04/26 07:19:44;;;;;;;1.20;0.50;;;;;;;13.92;61.73;101484.69;5048046;28;20050;-76
2023/04/26 07:22:13;;;;;;;0.93;0.40;;;;;;;13.90;62.00;101475.97;5038365;28;20077;-76
2023/04/26 07:24:42;;;;;;;0.60;0.30;;;;;;;13.91;61.66;101479.47;5046125;28;20078;-75
2023/04/26 07:27:12;;;;;;;0.40;0.32;;;;;;;13.90;61.20;101481.19;5039157;28;20052;-75
2023/04/26 07:29:41;;;;;;;2.05;0.52;;;;;;;13.90;61.44;101481.19;5046175;28;20126;-74
2023/04/26 07:32:10;;;;;;;0.45;0.40;;;;;;;13.89;61.72;101484.63;5042450;28;20048;-76
2023/04/26 07:34:38;;;;;;;0.73;0.32;;;;;;;13.89;62.53;101489.84;5047063;28;20045;-75
2023/04/26 07:37:07;;;;;;;0.82;0.32;;;;;;;13.88;61.60;101485.47;5039154;28;20045;-76
2023/04/26 07:39:36;;;;;;;0.35;0.25;;;;;;;13.89;61.96;101494.16;5040776;28;20076;-75
2023/04/26 07:42:07;;;;;;;1.80;0.50;;;;;;;13.87;62.58;101490.63;5049500;28;20052;-74
2023/04/26 07:44:37;;;;;;;0.57;0.30;;;;;;;13.80;62.33;101482.66;5047945;28;20059;-75
2023/04/26 07:47:06;;;;;;;0.38;0.25;;;;;;;13.80;62.88;101484.38;5042816;28;20454;-76
2023/04/26 07:49:35;;;;;;;2.47;0.40;;;;;;;13.76;62.85;101482.53;5041897;28;20118;-76
2023/04/26 07:52:03;;;;;;;2.47;0.55;;;;;;;13.72;63.33;101475.47;5048031;28;20076;-77
2023/04/26 07:54:32;;;;;;;5.53;0.50;;;;;;;13.66;63.43;101485.72;5039520;28;20132;-76
2023/04/26 07:57:01;;;;;;;0.50;0.43;;;;;;;13.62;63.67;101470.00;5036879;28;20069;-76
2023/04/26 07:59:30;;;;;;;2.58;0.50;;;;;;;13.59;63.77;101475.13;5047434;28;20049;-75
2023/04/26 08:02:00;;;;;;;1.48;0.47;;;;;;;13.57;63.48;101476.81;5043536;28;20071;-75
2023/04/26 08:04:33;;;;;;;0.63;0.43;;;;;;;13.55;62.95;101477.59;5045075;28;20053;-76
2023/04/26 08:07:02;;;;;;;1.85;0.30;;;;;;;13.55;62.95;101481.06;5045004;28;20643;-75
2023/04/26 08:09:31;;;;;;;2.88;0.40;;;;;;;13.55;62.72;101486.28;5040742;27;20111;-75
2023/04/26 08:12:00;;;;;;;0.17;0.17;;;;;;;13.55;62.87;101482.78;5047257;28;20124;-76
2023/04/26 08:14:29;;;;;;;0.98;0.32;;;;;;;13.55;62.26;101480.19;5046341;28;20045;-76
2023/04/26 08:17:00;;;;;;;1.55;0.43;;;;;;;13.54;62.63;101481.06;5048673;28;20076;-76
2023/04/26 08:19:31;;;;;;;6.53;0.95;;;;;;;13.53;62.79;101479.28;5048193;28;20056;-76
2023/04/26 08:22:00;;;;;;;1.45;0.60;;;;;;;13.51;63.17;101476.63;5040364;28;20053;-76
2023/04/26 08:24:28;;;;;;;1.40;0.30;;;;;;;13.50;63.59;101480.06;5042805;28;20136;-76
2023/04/26 08:26:58;;;;;;;1.33;0.25;;;;;;;13.46;63.48;101470.41;5045455;28;20071;-76
2023/04/26 08:29:30;;;;;;;1.42;0.30;;;;;;;13.44;63.82;101479.00;5039150;28;20186;-75
2023/04/26 08:32:00;;;;;;;1.37;0.40;;;;;;;13.40;63.99;101478.03;5047157;28;20136;-76
2023/04/26 08:34:29;;;;;;;2.13;0.32;;;;;;;13.36;64.15;101481.38;5049370;28;20087;-77
2023/04/26 08:36:57;;;;;;;2.03;0.30;;;;;;;13.32;64.03;101476.94;5039941;28;20055;-76
2023/04/26 08:39:26;;;;;;;1.13;0.20;;;;;;;13.29;64.39;101469.03;5036605;28;20045;-77
2023/04/26 08:41:56;;;;;;;0.20;0.20;;;;;;;13.24;64.78;101461.09;5041803;28;20679;-75
2023/04/26 08:44:28;;;;;;;1.42;0.47;;;;;;;13.23;65.89;101463.63;5053294;28;20099;-76
2023/04/26 08:47:05;;;;;;;0.40;0.30;;;;;;;13.16;65.30;101458.22;5038516;28;20112;-75
2023/04/26 08:49:41;;;;;;;0.10;0.10;;;;;;;13.13;66.19;101458.16;5043836;28;20099;-76
2023/04/26 08:52:11;;;;;;;0.77;0.30;;;;;;;13.11;65.55;101456.34;5040097;28;20081;-76
2023/04/26 08:54:41;;;;;;;0.95;0.40;;;;;;;13.09;65.73;101455.41;5042661;28;20052;-76
2023/04/26 08:57:10;;;;;;;0.45;0.30;;;;;;;13.09;64.92;101451.09;5041845;28;20080;-76
2023/04/26 08:59:40;;;;;;;3.40;0.55;;;;;;;13.07;65.73;101452.75;5041887;28;20052;-77
2023/04/26 09:02:13;;;;;;;0.73;0.50;;;;;;;13.06;66.00;101456.19;5044359;28;20685;-76
2023/04/26 09:04:42;;;;;;;1.08;0.30;;;;;;;13.04;65.51;101460.47;5045099;28;20056;-76
2023/04/26 09:07:13;;;;;;;6.03;0.40;;;;;;;13.02;66.36;101463.84;5034706;28;20049;-77
2023/04/26 09:09:51;;;;;;;2.22;0.63;;;;;;;12.99;65.85;101464.66;5050275;28;20060;-77
2023/04/26 09:12:21;;;;;;;0.80;0.73;;;;;;;12.94;66.56;101466.19;5041890;28;20041;-76
2023/04/26 09:14:50;;;;;;;1.25;0.40;;;;;;;12.90;66.03;101464.38;5045594;28;20127;-77
2023/04/26 09:17:31;;;;;;;1.33;0.30;;;;;;;12.85;66.50;101464.22;5038979;28;20045;-77
2023/04/26 09:20:04;;;;;;;2.55;0.52;;;;;;;12.84;67.08;101466.75;5038737;28;20064;-77
2023/04/26 09:22:34;;;;;;;2.55;0.63;;;;;;;12.81;66.52;101464.06;5037651;28;20052;-77
2023/04/26 09:25:04;;;;;;;0.47;0.30;;;;;;;12.77;66.34;101458.75;5042015;28;20037;-77
2023/04/26 09:27:37;;;;;;;0.98;0.30;;;;;;;12.75;67.03;101457.81;5042891;28;20565;-77
2023/04/26 09:30:09;;;;;;;1.85;0.52;;;;;;;12.75;67.10;101452.63;5042206;28;20103;-78
2023/04/26 09:32:51;;;;;;;2.63;0.60;;;;;;;12.71;67.88;101440.41;5047326;28;20057;-77
2023/04/26 09:35:32;;;;;;;0.47;0.30;;;;;;;12.69;67.04;101434.28;5039273;28;20045;-77
2023/04/26 09:38:02;;;;;;;1.20;0.50;;;;;;;12.67;67.38;101429.88;5044120;28;20487;-77
2023/04/26 09:40:32;;;;;;;0.63;0.22;;;;;;;12.63;67.30;101428.88;5043968;28;20110;-76
2023/04/26 09:43:03;;;;;;;0.90;0.40;;;;;;;12.55;67.97;101420.88;5047526;28;20088;-76
2023/04/26 09:45:34;;;;;;;2.60;0.30;;;;;;;12.58;67.90;101433.06;5036818;28;20062;-76
2023/04/26 09:48:20;;;;;;;1.90;0.40;;;;;;;12.61;67.07;101427.09;5041250;28;20049;-76
2023/04/26 09:50:49;;;;;;;3.17;0.50;;;;;;;12.62;66.53;101426.22;5042805;28;20135;-76
2023/04/26 09:53:33;;;;;;;1.77;0.30;;;;;;;12.61;67.79;101434.88;5043047;28;20065;-77
2023/04/26 09:56:08;;;;;;;3.30;0.45;;;;;;;12.55;67.04;101426.06;5044774;28;20055;-77
2023/04/26 09:58:39;;;;;;;0.73;0.40;;;;;;;12.53;66.98;101427.72;5045010;28;20770;-76
2023/04/26 10:01:09;;;;;;;2.85;0.40;;;;;;;12.50;67.45;101426.72;5042243;28;20049;-77
2023/04/26 10:03:40;;;;;;;0.30;0.25;;;;;;;12.47;67.31;101431.81;5036101;28;20052;-76
2023/04/26 10:06:09;;;;;;;0.70;0.52;;;;;;;12.47;67.73;101429.22;5046084;28;20059;-77
2023/04/26 10:08:38;;;;;;;0.68;0.32;;;;;;;12.47;67.36;101437.91;5034313;28;20076;-76
2023/04/26 10:11:09;;;;;;;2.00;0.57;;;;;;;12.45;67.60;101430.91;5040314;28;20060;-77
2023/04/26 10:13:37;;;;;;;0.30;0.30;;;;;;;12.44;68.38;101435.22;5036606;28;20060;-77
2023/04/26 10:16:07;;;;;;;1.88;0.63;;;;;;;12.41;67.72;101431.63;5042877;28;20064;-76
2023/04/26 10:18:39;;;;;;;0.30;0.20;;;;;;;12.41;68.90;101434.22;5047745;28;20049;-76
2023/04/26 10:21:12;;;;;;;0.80;0.50;;;;;;;12.36;68.32;101431.47;5046484;28;20468;-76
2023/04/26 10:23:42;;;;;;;1.05;0.50;;;;;;;12.26;68.51;101427.69;5047685;28;20132;-76
2023/04/26 10:26:51;;;;;;;2.88;0.50;;;;;;;12.30;69.56;101439.94;5041291;28;20091;-76
2023/04/26 10:29:20;;;;;;;5.43;0.50;;;;;;;12.30;67.93;101445.13;5045670;28;20063;-76
2023/04/26 10:32:15;;;;;;;0.82;0.50;;;;;;;12.33;70.02;101439.16;5048599;28;20099;-76
2023/04/26 10:35:06;;;;;;;0.80;0.43;;;;;;;12.31;70.40;101444.28;5045019;28;20080;-76
2023/04/26 10:37:34;;;;;;;1.13;0.43;;;;;;;12.28;70.19;101439.00;5044340;28;20736;-75
2023/04/26 10:40:24;;;;;;;1.30;0.30;;;;;;;12.27;69.38;101431.16;5046156;28;20061;-74
2023/04/26 10:43:13;;;;;;;1.05;0.60;;;;;;;12.25;69.46;101414.66;5045592;28;20065;-75
2023/04/26 10:45:44;;;;;;;0.60;0.40;;;;;;;12.24;70.76;101418.97;5043202;28;20112;-75
2023/04/26 10:48:17;;;;;;;5.65;0.73;;;;;;;12.21;70.98;101412.78;5046186;28;20056;-74
2023/04/26 10:51:11;;;;;;;0.68;0.40;;;;;;;12.19;68.21;101410.16;5045524;28;20080;-74
2023/04/26 10:54:03;;;;;;;0.98;0.65;;;;;;;12.22;68.80;101414.56;5042654;28;20049;-76
2023/04/26 10:56:53;;;;;;;0.40;0.30;;;;;;;12.24;67.83;101418.97;5039589;28;20052;-75
2023/04/26 10:59:22;;;;;;;0.73;0.55;;;;;;;12.21;69.57;101425.75;5035803;28;20088;-76
2023/04/26 11:01:53;;;;;;;1.95;0.80;;;;;;;12.15;69.40;101427.31;5050105;28;20057;-77
2023/04/26 11:04:21;;;;;;;2.78;0.50;;;;;;;12.12;69.42;101431.53;5046103;28;20692;-76
2023/04/26 11:06:53;;;;;;;0.68;0.47;;;;;;;12.06;68.83;101434.78;5049106;28;20055;-74
2023/04/26 11:09:41;;;;;;;1.00;0.30;;;;;;;12.00;69.60;101441.47;5045864;28;20764;-73
2023/04/26 11:12:13;;;;;;;2.28;0.52;;;;;;;11.92;70.68;101444.69;5048525;28;20041;-76
2023/04/26 11:14:44;;;;;;;0.63;0.55;;;;;;;11.83;70.70;101431.38;5045913;28;20056;-75
2023/04/26 11:17:13;;;;;;;0.90;0.50;;;;;;;11.77;71.61;101433.75;5045648;28;20055;-75
2023/04/26 11:19:44;;;;;;;2.08;0.50;;;;;;;11.72;70.99;101446.53;5044949;28;20120;-75
2023/04/26 11:22:14;;;;;;;2.25;1.00;;;;;;;11.69;71.15;101449.03;5042912;28;20064;-75
2023/04/26 11:24:44;;;;;;;0.57;0.38;;;;;;;11.67;70.91;101452.41;5038091;28;20092;-73
2023/04/26 11:27:13;;;;;;;0.70;0.52;;;;;;;11.63;71.92;101432.38;5039362;28;20049;-75
2023/04/26 11:29:42;;;;;;;1.83;0.40;;;;;;;11.57;71.74;101430.47;5038025;28;20126;-76
2023/04/26 11:32:11;;;;;;;0.70;0.50;;;;;;;11.57;70.84;101426.97;5041868;28;20049;-75
2023/04/26 11:34:40;;;;;;;0.50;0.45;;;;;;;11.55;71.34;101428.66;5045387;28;20041;-74
2023/04/26 11:37:09;;;;;;;1.33;0.50;;;;;;;11.52;71.87;101438.06;5046956;28;20072;-75
2023/04/26 11:39:40;;;;;;;1.27;0.70;;;;;;;11.46;72.19;101430.06;5036609;28;20411;-75